Tres Isletas, Argentina
Current Conditions -  °F | °C
As of 3:00 AM on Thursday 23 Oct 2014 (Local Time) from SARC Reporting Station
Clear Clear  
Wind Chill: 73°   Ceiling: Unl
Heat Index: 73°   Visibility: 6mi
Dew Point: 64°   Wind: 3mph
Humidity: 73%   Direction: 90°E
Pressure: 29.91"   Gusts: NA
Location:  26.35°S, 60.43°W
Report Text: SARC 230600Z 09003KT CAVOK 23/18 Q1013
Loading
Personal Weather Stations






























Interactive Weather Map New forecast layout! Learn more

10-Day Weather Forecast

Advertisements
Track Severe Weather on mobile